createdAt,value
2022-09-01T00:04:36.189Z,98209.13
2022-09-01T00:09:39.724Z,98212.63
2022-09-01T00:14:43.126Z,98214.28
2022-09-01T00:19:45.555Z,98210.66
2022-09-01T00:24:48.031Z,98221.75
2022-09-01T00:29:50.487Z,98222.94
2022-09-01T00:34:52.965Z,98212.00
2022-09-01T00:39:55.607Z,98210.69
2022-09-01T00:44:58.223Z,98209.44
2022-09-01T00:50:00.710Z,98201.81
2022-09-01T00:55:10.944Z,98194.97
2022-09-01T01:00:18.848Z,98197.75
2022-09-01T01:05:33.326Z,98193.81
2022-09-01T01:10:41.796Z,98197.38
2022-09-01T01:15:44.977Z,98193.47
2022-09-01T01:21:08.756Z,98198.66
2022-09-01T01:26:11.403Z,98193.34
2022-09-01T01:31:18.620Z,98204.94
2022-09-01T01:36:32.782Z,98203.00
2022-09-01T01:41:41.061Z,98207.53
2022-09-01T01:46:50.357Z,98200.59
2022-09-01T01:51:56.295Z,98202.91
2022-09-01T01:57:05.571Z,98200.41
2022-09-01T02:02:08.852Z,98213.91
2022-09-01T02:07:13.682Z,98205.44
2022-09-01T02:12:19.569Z,98205.63
2022-09-01T02:17:22.974Z,98204.16
2022-09-01T02:22:25.868Z,98197.72
2022-09-01T02:27:29.646Z,98205.50
2022-09-01T02:32:32.196Z,98208.34
2022-09-01T02:37:34.944Z,98206.13
2022-09-01T02:42:41.050Z,98203.66
2022-09-01T02:47:48.569Z,98206.78
2022-09-01T02:52:52.462Z,98201.22
2022-09-01T02:57:58.307Z,98198.25
2022-09-01T03:03:02.644Z,98191.63
2022-09-01T03:08:10.495Z,98189.31
2022-09-01T03:13:20.671Z,98188.94
2022-09-01T03:18:23.853Z,98184.53
2022-09-01T03:23:28.178Z,98186.97
2022-09-01T03:28:32.012Z,98184.63
2022-09-01T03:33:36.611Z,98192.56
2022-09-01T03:38:44.251Z,98196.56
2022-09-01T03:43:48.375Z,98204.47
2022-09-01T03:48:55.163Z,98197.13
2022-09-01T03:53:59.122Z,98198.53
2022-09-01T03:59:02.431Z,98201.50
2022-09-01T04:04:06.768Z,98202.53
2022-09-01T04:09:10.970Z,98202.41
2022-09-01T04:14:16.062Z,98194.03
2022-09-01T04:19:25.741Z,98195.41
2022-09-01T04:24:31.873Z,98193.88
2022-09-01T04:29:34.681Z,98201.84
2022-09-01T04:34:40.091Z,98206.53
2022-09-01T04:39:53.751Z,98204.03
2022-09-01T04:45:00.099Z,98212.19
2022-09-01T04:50:14.358Z,98201.94
2022-09-01T04:55:20.109Z,98204.94
2022-09-01T05:00:24.454Z,98211.63
2022-09-01T05:05:27.594Z,98207.06
2022-09-01T05:10:33.430Z,98205.63
2022-09-01T05:15:48.580Z,98201.84
2022-09-01T05:20:53.121Z,98197.44
2022-09-01T05:25:56.298Z,98204.19
2022-09-01T05:31:02.252Z,98211.97
2022-09-01T05:36:08.454Z,98207.47
2022-09-01T05:41:16.980Z,98211.75
2022-09-01T05:46:22.879Z,98213.38
2022-09-01T05:51:46.058Z,98211.41
2022-09-01T05:56:53.731Z,98208.94
2022-09-01T06:02:01.009Z,98213.28
2022-09-01T06:07:10.206Z,98215.75
2022-09-01T06:12:18.978Z,98217.75
2022-09-01T06:17:25.547Z,98204.69
2022-09-01T06:22:29.252Z,98203.22
2022-09-01T06:27:41.276Z,98213.22
2022-09-01T06:32:45.061Z,98216.06
2022-09-01T06:37:48.626Z,98208.91
2022-09-01T06:43:09.163Z,98212.44
2022-09-01T06:48:16.090Z,98204.75
2022-09-01T06:53:35.224Z,98206.22
2022-09-01T06:58:47.592Z,98212.22
2022-09-01T07:03:53.131Z,98215.06
2022-09-01T07:21:35.953Z,98231.63
2022-09-01T07:26:07.185Z,98228.63
2022-09-01T07:42:31.192Z,98214.94
2022-09-01T07:48:03.605Z,98247.94
2022-09-01T07:53:11.199Z,98252.25
2022-09-01T07:58:15.188Z,98256.50
2022-09-01T08:03:23.018Z,98254.56
2022-09-01T08:08:28.889Z,98255.09
2022-09-01T08:13:41.790Z,98257.63
2022-09-01T08:18:48.555Z,98257.09
2022-09-01T08:24:04.410Z,98266.75
2022-09-01T08:29:11.631Z,98263.41
2022-09-01T08:34:18.131Z,98268.19
2022-09-01T08:39:21.464Z,98266.09
2022-09-01T08:44:54.783Z,98261.75
2022-09-01T08:49:59.221Z,98272.25
2022-09-01T08:55:40.244Z,98271.94
2022-09-01T09:00:54.870Z,98272.25
2022-09-01T09:06:08.473Z,98273.44
2022-09-01T09:11:39.012Z,98270.69
2022-09-01T09:16:53.912Z,98289.88
2022-09-01T09:21:59.008Z,98271.88
2022-09-01T09:27:02.305Z,98278.22
2022-09-01T09:32:22.651Z,98272.53
2022-09-01T09:37:31.263Z,98277.53
2022-09-01T09:42:36.535Z,98271.59
2022-09-01T09:47:44.811Z,98274.19
2022-09-01T09:52:48.797Z,98272.44
2022-09-01T09:57:54.790Z,98262.88
2022-09-01T10:03:19.109Z,98254.78
2022-09-01T10:08:27.508Z,98256.28
2022-09-01T10:13:35.584Z,98252.19
2022-09-01T10:18:45.455Z,98251.84
2022-09-01T10:23:48.230Z,98258.69
2022-09-01T10:29:06.496Z,98258.50
2022-09-01T10:34:15.283Z,98259.38
2022-09-01T10:39:22.201Z,98251.41
2022-09-01T10:44:54.615Z,98247.34
2022-09-01T10:49:59.890Z,98242.31
2022-09-01T10:55:06.531Z,98231.06
2022-09-01T11:00:39.842Z,98227.88
2022-09-01T11:06:11.045Z,98231.06
2022-09-01T11:11:20.217Z,98219.53
2022-09-01T11:16:47.059Z,98221.28
2022-09-01T11:22:10.374Z,98214.63
2022-09-01T11:27:33.958Z,98212.91
2022-09-01T11:32:38.474Z,98214.63
2022-09-01T11:37:42.043Z,98217.22
2022-09-01T11:42:46.697Z,98213.75
2022-09-01T11:48:11.507Z,98198.56
2022-09-01T11:53:24.153Z,98197.13
2022-09-01T11:58:34.616Z,98183.59
2022-09-01T12:03:37.289Z,98197.00
2022-09-01T12:08:42.931Z,98189.69
2022-09-01T12:14:07.672Z,98182.06
2022-09-01T12:19:25.881Z,98170.66
2022-09-01T12:24:31.427Z,98174.06
2022-09-01T12:29:34.544Z,98168.72
2022-09-01T12:34:39.929Z,98172.94
2022-09-01T12:39:54.936Z,98162.34
2022-09-01T12:45:00.256Z,98163.78
2022-09-01T12:50:03.469Z,98170.97
2022-09-01T12:55:06.362Z,98166.75
2022-09-01T13:00:12.581Z,98173.81
2022-09-01T13:05:38.702Z,98182.09
2022-09-01T13:10:54.318Z,98167.66
2022-09-01T13:16:04.409Z,98164.59
2022-09-01T13:21:07.771Z,98161.53
2022-09-01T13:26:11.458Z,98155.06
2022-09-01T13:31:30.155Z,98153.16
2022-09-01T13:36:52.038Z,98145.72
2022-09-01T13:41:54.732Z,98145.56
2022-09-01T13:47:00.967Z,98134.50
2022-09-01T13:52:19.711Z,98142.91
2022-09-01T13:57:22.270Z,98141.25
2022-09-01T14:02:26.393Z,98138.94
2022-09-01T14:07:30.570Z,98129.97
2022-09-01T14:12:33.026Z,98128.00
2022-09-01T14:17:36.607Z,98139.38
2022-09-01T14:22:42.596Z,98133.66
2022-09-01T14:27:45.899Z,98119.41
2022-09-01T14:32:52.251Z,98116.28
2022-09-01T14:37:56.355Z,98112.25
2022-09-01T14:42:58.857Z,98105.81
2022-09-01T14:48:01.571Z,98102.53
2022-09-01T14:53:04.268Z,98106.59
2022-09-01T14:58:06.810Z,98104.97
2022-09-01T15:03:09.939Z,98093.97
2022-09-01T15:08:17.432Z,98105.31
2022-09-01T15:13:20.314Z,98096.31
2022-09-01T15:18:22.977Z,98082.94
2022-09-01T15:23:26.732Z,98084.25
2022-09-01T15:28:29.229Z,98087.34
2022-09-01T15:33:31.669Z,98087.22
2022-09-01T15:38:34.243Z,98091.19
2022-09-01T15:43:37.067Z,98082.56
2022-09-01T15:48:40.174Z,98088.78
2022-09-01T15:53:42.935Z,98081.16
2022-09-01T15:59:00.680Z,98076.88
2022-09-01T16:04:06.196Z,98070.34
2022-09-01T16:09:09.311Z,98066.34
2022-09-01T16:14:12.121Z,98073.38
2022-09-01T16:19:38.594Z,98062.44
2022-09-01T16:24:50.434Z,98066.34
2022-09-01T16:29:58.292Z,98049.78
2022-09-01T16:35:04.248Z,98053.66
2022-09-01T16:40:21.765Z,98054.19
2022-09-01T16:45:51.471Z,98034.13
2022-09-01T16:51:15.398Z,98048.16
2022-09-01T16:56:32.665Z,98041.44
2022-09-01T17:02:02.488Z,98046.63
2022-09-01T17:07:35.216Z,98041.72
2022-09-01T17:12:51.101Z,98035.19
2022-09-01T17:18:22.199Z,98040.34
2022-09-01T17:23:29.862Z,98046.50
2022-09-01T17:28:55.398Z,98049.66
2022-09-01T17:34:15.974Z,98062.34
2022-09-01T17:39:38.727Z,98060.78
2022-09-01T17:44:59.836Z,98061.72
2022-09-01T17:50:09.596Z,98073.63
2022-09-01T17:55:33.736Z,98072.66
2022-09-01T18:00:46.614Z,98074.47
2022-09-01T18:06:03.322Z,98079.50
2022-09-01T18:11:15.751Z,98089.63
2022-09-01T18:16:25.415Z,98091.13
2022-09-01T18:21:35.650Z,98087.34
2022-09-01T18:26:41.571Z,98095.44
2022-09-01T18:31:45.453Z,98099.66
2022-09-01T18:37:08.838Z,98108.47
2022-09-01T18:42:31.928Z,98106.44
2022-09-01T18:48:01.991Z,98099.13
2022-09-01T18:53:22.163Z,98094.66
2022-09-01T18:58:27.411Z,98102.19
2022-09-01T19:03:38.795Z,98098.63
2022-09-01T19:09:06.800Z,98097.78
2022-09-01T19:19:54.418Z,98102.06
2022-09-01T19:25:26.443Z,98107.13
2022-09-01T19:30:28.999Z,98109.81
2022-09-01T19:35:36.602Z,98109.16
2022-09-01T19:40:43.690Z,98113.31
2022-09-01T19:45:59.418Z,98112.69
2022-09-01T19:51:09.016Z,98117.81
2022-09-01T19:56:29.782Z,98110.13
2022-09-01T20:02:05.310Z,98110.44
2022-09-01T20:07:37.639Z,98114.78
2022-09-01T20:13:03.577Z,98117.63
2022-09-01T20:18:21.794Z,98112.13
2022-09-01T20:23:36.748Z,98106.63
2022-09-01T20:28:55.300Z,98108.97
2022-09-01T20:34:11.775Z,98109.41
2022-09-01T20:39:50.272Z,98113.97
2022-09-01T20:44:57.783Z,98112.63
2022-09-01T20:50:02.015Z,98106.09
2022-09-01T20:55:25.714Z,98106.06
2022-09-01T21:00:30.173Z,98098.16
2022-09-01T21:06:04.337Z,98100.09
2022-09-01T21:11:30.881Z,98088.03
2022-09-01T21:16:48.531Z,98090.56
2022-09-01T21:22:02.863Z,98092.97
2022-09-01T21:27:19.720Z,98092.19
2022-09-01T21:32:22.886Z,98092.25
2022-09-01T21:37:27.036Z,98093.81
2022-09-01T21:42:54.524Z,98093.22
2022-09-01T21:47:57.058Z,98097.13
2022-09-01T21:52:59.634Z,98098.78
2022-09-01T21:58:02.918Z,98101.28
2022-09-01T22:03:06.739Z,98096.00
2022-09-01T22:08:12.228Z,98086.25
2022-09-01T22:13:15.909Z,98087.88
2022-09-01T22:18:20.426Z,98081.91
2022-09-01T22:23:23.067Z,98087.22
2022-09-01T22:28:26.362Z,98082.78
2022-09-01T22:33:29.785Z,98080.53
2022-09-01T22:38:33.131Z,98080.56
2022-09-01T22:43:35.571Z,98078.38
2022-09-01T22:48:38.230Z,98081.53
2022-09-01T22:53:43.008Z,98088.72
2022-09-01T22:58:45.494Z,98082.25
2022-09-01T23:03:48.712Z,98082.78
2022-09-01T23:08:55.726Z,98085.78
2022-09-01T23:13:58.553Z,98078.94
2022-09-01T23:19:01.182Z,98078.44
2022-09-01T23:24:04.434Z,98075.53
2022-09-01T23:29:06.929Z,98069.75
2022-09-01T23:34:09.750Z,98072.03
2022-09-01T23:39:12.196Z,98070.06
2022-09-01T23:44:16.022Z,98063.84
2022-09-01T23:49:19.455Z,98071.78
2022-09-01T23:54:22.692Z,98066.53
2022-09-01T23:59:27.524Z,98062.47
